Time;durP1;ratioP1;P1;durP2;ratioP2;P2;SDS_P1;SDS_P2;PMS_P1;PMS_P2;Temp;Humidity;BMP_temperature;BMP_pressure;BME280_temperature;BME280_humidity;BME280_pressure;Samples;Min_cycle;Max_cycle;Signal;HPM_P1;HPM_P2
2024/04/01 00:00:22;;;;;;;4.32;3.65;;;;;;;;;;6325065;23;20635;-83
2024/04/01 00:02:54;;;;;;;5.88;4.28;;;;;;;;;;6320752;23;20466;-83
2024/04/01 00:05:27;;;;;;;5.10;3.67;;;;;;;;;;6327427;23;20081;-84
2024/04/01 00:08:00;;;;;;;5.53;4.47;;;;;;;;;;6276803;23;20022;-83
2024/04/01 00:10:32;;;;;;;4.60;3.72;;;;;;;;;;6324679;23;20021;-84
2024/04/01 00:13:03;;;;;;;6.22;4.40;;;;;;;;;;6276818;23;20120;-83
2024/04/01 00:15:36;;;;;;;5.50;3.97;;;;;;;;;;6277396;23;20069;-83
2024/04/01 00:18:07;;;;;;;6.05;4.30;;;;;;;;;;6300757;23;20084;-83
2024/04/01 00:20:41;;;;;;;7.50;4.00;;;;;;;;;;6326613;23;20021;-83
2024/04/01 00:23:12;;;;;;;4.50;3.85;;;;;;;;;;6300146;23;20028;-83
2024/04/01 00:25:46;;;;;;;4.90;3.70;;;;;;;;;;6300641;23;20021;-83
2024/04/01 00:28:16;;;;;;;5.03;3.58;;;;;;;;;;6300086;23;20076;-83
2024/04/01 00:30:48;;;;;;;7.60;4.05;;;;;;;;;;6326708;23;20026;-83
2024/04/01 00:33:19;;;;;;;5.70;4.03;;;;;;;;;;6303158;23;20413;-83
2024/04/01 00:35:53;;;;;;;6.35;3.45;;;;;;;;;;6276716;23;20496;-83
2024/04/01 00:38:24;;;;;;;4.55;3.45;;;;;;;;;;6327097;23;20025;-84
2024/04/01 00:40:57;;;;;;;5.82;3.53;;;;;;;;;;6274931;23;20111;-84
2024/04/01 00:43:28;;;;;;;4.07;3.45;;;;;;;;;;6327012;23;20339;-84
2024/04/01 00:46:00;;;;;;;5.45;3.45;;;;;;;;;;6303148;23;20022;-83
2024/04/01 00:48:31;;;;;;;6.25;4.20;;;;;;;;;;6327836;23;20144;-83
2024/04/01 00:51:07;;;;;;;4.95;4.25;;;;;;;;;;6301930;23;20709;-83
2024/04/01 00:53:38;;;;;;;5.90;4.43;;;;;;;;;;6278928;23;20081;-83
2024/04/01 00:56:12;;;;;;;8.40;6.05;;;;;;;;;;6279889;23;20405;-84
2024/04/01 00:58:43;;;;;;;10.37;6.03;;;;;;;;;;6302283;23;20357;-83
2024/04/01 01:01:15;;;;;;;8.93;5.20;;;;;;;;;;6327438;23;20257;-83
2024/04/01 01:03:46;;;;;;;5.82;4.78;;;;;;;;;;6301214;23;20037;-83
2024/04/01 01:06:19;;;;;;;6.53;5.40;;;;;;;;;;6326928;23;20033;-83
2024/04/01 01:08:50;;;;;;;7.13;5.90;;;;;;;;;;6302546;23;20413;-83
2024/04/01 01:11:22;;;;;;;6.88;6.18;;;;;;;;;;6327596;23;20021;-84
2024/04/01 01:13:56;;;;;;;13.65;11.35;;;;;;;;;;6327905;23;20029;-83
2024/04/01 01:16:27;;;;;;;13.95;11.38;;;;;;;;;;6328311;23;20026;-83
2024/04/01 01:18:59;;;;;;;11.25;8.60;;;;;;;;;;6329290;23;20021;-83
2024/04/01 01:21:33;;;;;;;9.90;7.63;;;;;;;;;;6282050;23;20084;-83
2024/04/01 01:24:07;;;;;;;9.90;7.60;;;;;;;;;;6304947;23;20452;-83
2024/04/01 01:26:38;;;;;;;7.22;5.68;;;;;;;;;;6303931;23;20022;-83
2024/04/01 01:29:10;;;;;;;8.63;5.68;;;;;;;;;;6328316;23;20057;-83
2024/04/01 01:31:40;;;;;;;8.57;6.50;;;;;;;;;;6330112;23;20022;-83
2024/04/01 01:34:13;;;;;;;8.00;5.35;;;;;;;;;;6305776;23;20485;-84
2024/04/01 01:36:44;;;;;;;7.40;5.93;;;;;;;;;;6330016;23;20017;-83
2024/04/01 01:39:17;;;;;;;7.50;5.88;;;;;;;;;;6326773;23;20403;-83
2024/04/01 01:41:48;;;;;;;8.70;6.22;;;;;;;;;;6329873;23;20021;-83
2024/04/01 01:44:20;;;;;;;7.80;5.78;;;;;;;;;;6327585;23;20024;-83
2024/04/01 01:46:51;;;;;;;8.50;6.68;;;;;;;;;;6305799;23;20022;-84
2024/04/01 01:49:25;;;;;;;7.03;5.78;;;;;;;;;;6303533;23;20099;-84
2024/04/01 01:51:56;;;;;;;9.35;5.75;;;;;;;;;;6304937;23;20026;-83
2024/04/01 01:54:29;;;;;;;5.60;4.90;;;;;;;;;;6280202;23;20065;-83
2024/04/01 01:57:00;;;;;;;8.13;5.68;;;;;;;;;;6329681;23;20076;-83
2024/04/01 01:59:34;;;;;;;8.57;4.47;;;;;;;;;;6327033;23;20046;-83
2024/04/01 02:02:05;;;;;;;5.95;4.45;;;;;;;;;;6328367;23;20025;-83
2024/04/01 02:04:38;;;;;;;5.40;3.65;;;;;;;;;;6327854;23;20022;-83
2024/04/01 02:07:09;;;;;;;6.78;3.50;;;;;;;;;;6303713;23;20072;-83
2024/04/01 02:09:42;;;;;;;5.00;3.95;;;;;;;;;;6302063;23;20022;-83
2024/04/01 02:12:13;;;;;;;3.63;3.22;;;;;;;;;;6303198;23;20022;-83
2024/04/01 02:14:46;;;;;;;4.35;3.15;;;;;;;;;;6327716;23;20077;-83
2024/04/01 02:17:19;;;;;;;5.00;3.03;;;;;;;;;;6329542;23;20021;-83
2024/04/01 02:19:52;;;;;;;3.85;2.85;;;;;;;;;;6303948;23;20097;-83
2024/04/01 02:22:23;;;;;;;4.40;2.92;;;;;;;;;;6328733;23;20160;-83
2024/04/01 02:24:56;;;;;;;3.08;2.65;;;;;;;;;;6328286;23;20401;-83
2024/04/01 02:27:29;;;;;;;3.75;2.72;;;;;;;;;;6329440;23;20022;-83
2024/04/01 02:30:01;;;;;;;3.45;2.40;;;;;;;;;;6303157;23;20025;-83
2024/04/01 02:32:31;;;;;;;3.90;2.70;;;;;;;;;;6303680;23;20025;-83
2024/04/01 02:35:04;;;;;;;4.72;3.35;;;;;;;;;;6328976;23;20022;-83
2024/04/01 02:37:35;;;;;;;4.80;2.85;;;;;;;;;;6328539;23;20030;-83
2024/04/01 02:40:10;;;;;;;4.43;2.47;;;;;;;;;;6303519;23;20022;-83
2024/04/01 02:42:41;;;;;;;7.88;3.28;;;;;;;;;;6328366;23;20033;-83
2024/04/01 02:45:13;;;;;;;5.45;3.75;;;;;;;;;;6326835;23;20022;-83
2024/04/01 02:47:44;;;;;;;4.90;3.65;;;;;;;;;;6330124;23;20030;-83
2024/04/01 02:50:16;;;;;;;7.00;4.80;;;;;;;;;;6327892;23;20032;-84
2024/04/01 02:52:47;;;;;;;7.85;6.90;;;;;;;;;;6332308;23;20028;-83
2024/04/01 02:55:21;;;;;;;8.48;5.85;;;;;;;;;;6333010;23;20049;-83
2024/04/01 02:57:52;;;;;;;9.35;6.32;;;;;;;;;;6329592;23;20335;-83
2024/04/01 03:00:25;;;;;;;5.80;5.20;;;;;;;;;;6329991;23;20029;-83
2024/04/01 03:02:57;;;;;;;6.05;4.22;;;;;;;;;;6328653;23;20022;-83
2024/04/01 03:05:30;;;;;;;7.80;4.55;;;;;;;;;;6327709;23;20097;-84
2024/04/01 03:08:01;;;;;;;4.53;3.40;;;;;;;;;;6303236;23;20028;-83
2024/04/01 03:10:35;;;;;;;4.90;3.10;;;;;;;;;;6328095;23;20022;-83
2024/04/01 03:13:06;;;;;;;4.63;3.38;;;;;;;;;;6304136;23;20030;-83
2024/04/01 03:15:38;;;;;;;4.45;3.15;;;;;;;;;;6328669;23;20037;-83
2024/04/01 03:18:09;;;;;;;4.47;2.75;;;;;;;;;;6303735;23;20028;-83
2024/04/01 03:20:40;;;;;;;3.08;2.40;;;;;;;;;;6304813;23;20030;-83
2024/04/01 03:23:13;;;;;;;4.72;3.00;;;;;;;;;;6328556;23;20029;-83
2024/04/01 03:25:51;;;;;;;5.90;2.80;;;;;;;;;;6327253;23;20462;-83
2024/04/01 03:28:24;;;;;;;4.72;3.03;;;;;;;;;;6328550;23;20049;-83
2024/04/01 03:30:56;;;;;;;4.47;3.38;;;;;;;;;;6329508;23;20017;-83
2024/04/01 03:33:27;;;;;;;4.35;3.50;;;;;;;;;;6328248;23;20029;-83
2024/04/01 03:35:58;;;;;;;6.07;3.97;;;;;;;;;;6303158;23;20026;-83
2024/04/01 03:38:30;;;;;;;4.63;3.78;;;;;;;;;;6327542;23;20045;-83
2024/04/01 03:41:06;;;;;;;7.32;3.28;;;;;;;;;;6303856;23;20116;-84
2024/04/01 03:43:39;;;;;;;5.65;3.28;;;;;;;;;;6304683;23;20510;-83
2024/04/01 03:46:11;;;;;;;6.25;3.45;;;;;;;;;;6303140;23;20040;-83
2024/04/01 03:48:42;;;;;;;4.25;3.47;;;;;;;;;;6279582;23;20025;-83
2024/04/01 03:51:15;;;;;;;8.27;5.60;;;;;;;;;;6327426;23;20053;-83
2024/04/01 03:53:52;;;;;;;7.32;5.45;;;;;;;;;;6329444;23;20644;-84
2024/04/01 03:56:27;;;;;;;5.10;4.32;;;;;;;;;;6303492;23;20026;-83
2024/04/01 03:58:59;;;;;;;5.15;4.10;;;;;;;;;;6326423;23;20025;-83
2024/04/01 04:01:31;;;;;;;8.02;5.68;;;;;;;;;;6299986;23;20025;-83
2024/04/01 04:04:04;;;;;;;5.43;3.72;;;;;;;;;;6302559;23;20048;-84
2024/04/01 04:06:35;;;;;;;3.20;2.90;;;;;;;;;;6328148;23;20048;-83
2024/04/01 04:09:15;;;;;;;3.55;3.22;;;;;;;;;;6327882;23;20076;-83
2024/04/01 04:11:49;;;;;;;4.70;2.88;;;;;;;;;;6327990;23;20028;-83
2024/04/01 04:14:23;;;;;;;4.10;2.88;;;;;;;;;;6327473;23;20483;-83
2024/04/01 04:16:55;;;;;;;6.25;2.80;;;;;;;;;;6279469;23;20021;-83
2024/04/01 04:19:27;;;;;;;4.38;2.70;;;;;;;;;;6327009;23;20022;-83
2024/04/01 04:21:58;;;;;;;4.60;2.92;;;;;;;;;;6303702;23;20029;-83
2024/04/01 04:24:29;;;;;;;5.38;2.70;;;;;;;;;;6302045;23;20048;-83
2024/04/01 04:27:02;;;;;;;3.50;2.42;;;;;;;;;;6304246;23;20022;-83
2024/04/01 04:29:35;;;;;;;3.28;2.60;;;;;;;;;;6327295;23;21079;-84
2024/04/01 04:32:10;;;;;;;5.47;2.40;;;;;;;;;;6302471;23;20100;-83
2024/04/01 04:34:42;;;;;;;4.40;2.53;;;;;;;;;;6304313;23;20025;-83
2024/04/01 04:37:15;;;;;;;2.90;2.58;;;;;;;;;;6325989;23;20017;-83
2024/04/01 04:39:47;;;;;;;5.47;2.92;;;;;;;;;;6325147;23;20623;-83
2024/04/01 04:42:20;;;;;;;3.50;2.53;;;;;;;;;;6327878;23;20026;-83
2024/04/01 04:44:52;;;;;;;5.53;2.85;;;;;;;;;;6303209;23;20117;-84
2024/04/01 04:47:23;;;;;;;2.90;2.42;;;;;;;;;;6327651;23;20029;-83
2024/04/01 04:49:56;;;;;;;4.68;2.47;;;;;;;;;;6327965;23;20479;-83
2024/04/01 04:52:27;;;;;;;4.18;2.90;;;;;;;;;;6303358;23;20398;-83
2024/04/01 04:54:59;;;;;;;2.58;2.30;;;;;;;;;;6302189;23;20029;-84
2024/04/01 04:57:33;;;;;;;5.38;2.80;;;;;;;;;;6326244;23;20021;-84
2024/04/01 05:00:20;;;;;;;3.90;2.70;;;;;;;;;;6326605;23;20028;-85
2024/04/01 05:02:52;;;;;;;3.83;3.10;;;;;;;;;;6328542;23;20257;-84
2024/04/01 05:05:25;;;;;;;4.28;2.30;;;;;;;;;;6304400;23;20706;-84
2024/04/01 05:07:56;;;;;;;4.47;2.50;;;;;;;;;;6302379;23;20575;-84
2024/04/01 05:10:31;;;;;;;3.80;2.58;;;;;;;;;;6327476;23;20607;-84
2024/04/01 05:13:03;;;;;;;2.80;2.00;;;;;;;;;;6302229;23;20029;-84
2024/04/01 05:15:36;;;;;;;3.08;2.28;;;;;;;;;;6322607;23;20050;-84
2024/04/01 05:18:07;;;;;;;2.67;2.30;;;;;;;;;;6279468;23;20021;-84
2024/04/01 05:20:39;;;;;;;3.63;2.20;;;;;;;;;;6301875;23;20085;-84
2024/04/01 05:23:12;;;;;;;4.15;2.08;;;;;;;;;;6303911;23;20026;-84
2024/04/01 05:25:45;;;;;;;2.88;2.17;;;;;;;;;;6303470;23;20030;-84
2024/04/01 05:28:19;;;;;;;2.83;2.08;;;;;;;;;;6328073;23;20021;-84
2024/04/01 05:30:53;;;;;;;3.42;2.15;;;;;;;;;;6303389;23;20810;-84
2024/04/01 05:33:31;;;;;;;5.03;3.17;;;;;;;;;;6327865;23;20526;-84
2024/04/01 05:36:03;;;;;;;4.03;2.67;;;;;;;;;;6304526;23;20018;-84
2024/04/01 05:38:35;;;;;;;3.50;2.22;;;;;;;;;;6303547;23;20029;-85
2024/04/01 05:41:07;;;;;;;4.90;3.15;;;;;;;;;;6328731;23;20022;-84
2024/04/01 05:43:39;;;;;;;4.20;3.20;;;;;;;;;;6327579;23;20032;-85
2024/04/01 05:46:11;;;;;;;3.60;3.00;;;;;;;;;;6305526;23;20026;-85
2024/04/01 05:48:43;;;;;;;5.13;3.20;;;;;;;;;;6328088;23;20076;-85
2024/04/01 05:51:15;;;;;;;3.80;2.72;;;;;;;;;;6329816;23;20021;-84
2024/04/01 05:53:45;;;;;;;7.55;3.53;;;;;;;;;;6303749;23;20054;-84
2024/04/01 05:56:17;;;;;;;3.95;3.10;;;;;;;;;;6330397;23;20025;-84
2024/04/01 05:58:50;;;;;;;6.03;3.85;;;;;;;;;;6304064;23;20028;-84
2024/04/01 06:01:22;;;;;;;5.85;3.30;;;;;;;;;;6281140;23;20480;-84
2024/04/01 06:03:52;;;;;;;5.25;3.13;;;;;;;;;;6307752;23;20033;-84
2024/04/01 06:06:24;;;;;;;4.50;3.42;;;;;;;;;;6330937;23;20452;-84
2024/04/01 06:08:55;;;;;;;5.00;3.60;;;;;;;;;;6306070;23;20022;-84
2024/04/01 06:11:29;;;;;;;5.07;3.53;;;;;;;;;;6331694;23;20017;-84
2024/04/01 06:14:01;;;;;;;4.22;3.40;;;;;;;;;;6306119;23;20108;-84
2024/04/01 06:16:33;;;;;;;5.85;3.85;;;;;;;;;;6328603;23;20116;-84
2024/04/01 06:19:04;;;;;;;8.38;6.32;;;;;;;;;;6306144;23;20030;-84
2024/04/01 06:21:36;;;;;;;4.80;4.03;;;;;;;;;;6330566;23;20130;-84
2024/04/01 06:24:07;;;;;;;5.68;3.17;;;;;;;;;;6319240;23;20021;-84
2024/04/01 06:26:39;;;;;;;3.08;2.55;;;;;;;;;;6306410;23;20140;-84
2024/04/01 06:29:11;;;;;;;5.60;2.78;;;;;;;;;;6331593;23;20028;-84
2024/04/01 06:31:44;;;;;;;6.75;2.90;;;;;;;;;;6298986;23;20092;-84
2024/04/01 06:34:15;;;;;;;6.03;3.13;;;;;;;;;;6308349;23;20036;-83
2024/04/01 06:36:49;;;;;;;5.38;3.38;;;;;;;;;;6311389;23;20070;-83
2024/04/01 06:39:22;;;;;;;8.68;4.00;;;;;;;;;;6332745;23;20398;-84
2024/04/01 06:41:55;;;;;;;5.25;3.97;;;;;;;;;;6334014;23;20026;-84
2024/04/01 06:44:28;;;;;;;4.60;3.40;;;;;;;;;;6332143;23;20026;-85
2024/04/01 06:46:59;;;;;;;5.63;3.75;;;;;;;;;;6332818;23;20080;-84
2024/04/01 06:49:31;;;;;;;6.60;3.90;;;;;;;;;;6308149;23;20026;-84
2024/04/01 06:52:03;;;;;;;5.25;4.10;;;;;;;;;;6304683;23;20356;-84
2024/04/01 06:54:34;;;;;;;6.93;4.18;;;;;;;;;;6328458;23;20525;-83
2024/04/01 06:57:09;;;;;;;7.80;4.25;;;;;;;;;;6304280;23;20073;-81
2024/04/01 06:59:40;;;;;;;;;;;;;;;;;;6328003;23;20385;-83
2024/04/01 07:02:14;;;;;;;6.25;4.20;;;;;;;;;;6329138;23;19917;-80
2024/04/01 07:04:45;;;;;;;5.68;4.60;;;;;;;;;;6321557;23;20025;-83
2024/04/01 07:07:17;;;;;;;9.05;4.72;;;;;;;;;;6301639;23;20563;-83
2024/04/01 07:09:47;;;;;;;6.57;4.15;;;;;;;;;;6300989;23;20022;-82
2024/04/01 07:12:21;;;;;;;5.55;3.70;;;;;;;;;;6326952;23;20092;-82
2024/04/01 07:14:52;;;;;;;6.70;4.22;;;;;;;;;;6327584;23;20397;-82
2024/04/01 07:17:26;;;;;;;6.68;4.28;;;;;;;;;;6328627;23;20018;-84
2024/04/01 07:19:57;;;;;;;7.53;4.27;;;;;;;;;;6303054;23;20026;-83
2024/04/01 07:22:29;;;;;;;5.10;4.13;;;;;;;;;;6302455;23;20292;-83
2024/04/01 07:25:04;;;;;;;5.35;3.63;;;;;;;;;;6301055;23;20027;-83
2024/04/01 07:27:35;;;;;;;5.07;3.83;;;;;;;;;;6326150;23;20630;-83
2024/04/01 07:30:08;;;;;;;6.00;4.13;;;;;;;;;;6301658;23;20096;-83
2024/04/01 07:32:41;;;;;;;5.00;3.83;;;;;;;;;;6327365;23;20044;-83
2024/04/01 07:35:14;;;;;;;5.43;4.45;;;;;;;;;;6329820;23;20022;-83
2024/04/01 07:37:47;;;;;;;6.43;4.43;;;;;;;;;;6303889;23;20374;-82
2024/04/01 07:40:20;;;;;;;6.60;4.45;;;;;;;;;;6304113;23;20030;-85
2024/04/01 07:42:52;;;;;;;7.82;4.68;;;;;;;;;;6331488;23;20076;-84
2024/04/01 07:45:24;;;;;;;5.60;4.80;;;;;;;;;;6331226;23;20057;-85
2024/04/01 07:47:56;;;;;;;5.38;4.40;;;;;;;;;;6326162;23;20025;-85
2024/04/01 07:50:28;;;;;;;7.13;4.57;;;;;;;;;;6326980;23;20029;-85
2024/04/01 07:53:01;;;;;;;5.43;4.83;;;;;;;;;;6301304;23;20048;-85
2024/04/01 07:55:33;;;;;;;6.93;4.85;;;;;;;;;;6329487;23;20026;-86
2024/04/01 07:58:04;;;;;;;5.57;4.80;;;;;;;;;;6326951;23;20088;-84
2024/04/01 08:00:37;;;;;;;5.28;4.47;;;;;;;;;;6328873;23;20473;-86
2024/04/01 08:03:12;;;;;;;7.68;5.65;;;;;;;;;;6302242;23;20022;-86
2024/04/01 08:05:43;;;;;;;7.22;5.40;;;;;;;;;;6303412;23;20025;-86
2024/04/01 08:08:17;;;;;;;6.45;4.65;;;;;;;;;;6328911;23;20480;-85
2024/04/01 08:10:49;;;;;;;6.68;5.22;;;;;;;;;;6280313;23;20076;-85
2024/04/01 08:13:21;;;;;;;7.38;5.07;;;;;;;;;;6302124;23;20108;-86
2024/04/01 08:15:58;;;;;;;7.13;4.78;;;;;;;;;;6302116;23;20117;-85
2024/04/01 08:18:32;;;;;;;6.53;4.72;;;;;;;;;;6325675;23;20470;-85
2024/04/01 08:21:04;;;;;;;8.30;4.47;;;;;;;;;;6327100;23;20346;-83
2024/04/01 08:23:35;;;;;;;6.03;4.28;;;;;;;;;;6328541;23;20022;-85
2024/04/01 08:26:09;;;;;;;5.90;3.90;;;;;;;;;;6328956;23;20018;-85
2024/04/01 08:28:41;;;;;;;6.88;4.45;;;;;;;;;;6304348;23;20021;-84
2024/04/01 08:31:13;;;;;;;5.63;4.68;;;;;;;;;;6327551;23;20021;-80
2024/04/01 08:33:45;;;;;;;5.38;4.20;;;;;;;;;;6275991;23;20125;-83
2024/04/01 08:36:18;;;;;;;4.85;3.58;;;;;;;;;;6337395;23;20032;-81
2024/04/01 08:38:50;;;;;;;4.75;3.35;;;;;;;;;;6321560;23;20022;-82
2024/04/01 08:41:25;;;;;;;8.02;4.00;;;;;;;;;;6346168;23;20041;-82
2024/04/01 08:43:59;;;;;;;4.78;3.15;;;;;;;;;;6345463;23;20073;-82
2024/04/01 08:46:32;;;;;;;4.50;3.22;;;;;;;;;;6298061;23;20021;-82
2024/04/01 08:49:09;;;;;;;4.60;3.80;;;;;;;;;;6320507;23;20092;-81
2024/04/01 08:51:43;;;;;;;3.25;2.95;;;;;;;;;;6350315;23;20077;-82
2024/04/01 08:54:13;;;;;;;4.30;3.58;;;;;;;;;;6346348;23;20112;-81
2024/04/01 08:56:45;;;;;;;7.05;5.18;;;;;;;;;;6294862;23;20081;-82
2024/04/01 08:59:17;;;;;;;6.85;6.18;;;;;;;;;;6317563;23;20025;-82
2024/04/01 09:01:51;;;;;;;7.80;5.25;;;;;;;;;;6316188;23;20369;-82
2024/04/01 09:04:23;;;;;;;9.32;6.07;;;;;;;;;;6319520;23;20022;-82
2024/04/01 09:06:55;;;;;;;6.70;6.07;;;;;;;;;;6318853;23;20041;-82
2024/04/01 09:09:27;;;;;;;5.65;5.03;;;;;;;;;;6346563;23;20028;-81
2024/04/01 09:11:59;;;;;;;6.03;5.38;;;;;;;;;;6345971;23;20617;-82
2024/04/01 09:14:29;;;;;;;5.90;4.13;;;;;;;;;;6324040;23;20160;-81
2024/04/01 09:17:01;;;;;;;4.38;3.97;;;;;;;;;;6344391;23;20017;-82
2024/04/01 09:19:34;;;;;;;5.03;3.65;;;;;;;;;;6290603;23;20022;-82
2024/04/01 09:22:06;;;;;;;5.35;4.63;;;;;;;;;;6323997;23;20090;-82
2024/04/01 09:24:38;;;;;;;4.90;4.40;;;;;;;;;;6343621;23;20018;-81
2024/04/01 09:27:10;;;;;;;5.45;4.93;;;;;;;;;;6294081;23;20026;-82
2024/04/01 09:29:41;;;;;;;4.80;4.30;;;;;;;;;;6345737;23;20141;-81
2024/04/01 09:32:15;;;;;;;5.35;4.32;;;;;;;;;;6323394;23;20018;-81
2024/04/01 09:34:48;;;;;;;4.18;3.85;;;;;;;;;;6324380;23;20407;-82
2024/04/01 09:37:21;;;;;;;5.82;5.38;;;;;;;;;;6356167;23;20077;-82
2024/04/01 09:39:52;;;;;;;7.13;6.43;;;;;;;;;;6358295;23;20026;-82
2024/04/01 09:42:24;;;;;;;4.40;4.00;;;;;;;;;;6330132;23;20026;-82
2024/04/01 09:44:55;;;;;;;4.68;4.28;;;;;;;;;;6327535;23;20053;-82
2024/04/01 09:47:27;;;;;;;4.85;4.32;;;;;;;;;;6352750;23;20022;-82
2024/04/01 09:50:00;;;;;;;6.72;5.63;;;;;;;;;;6326215;23;20038;-81
2024/04/01 09:52:34;;;;;;;5.78;5.28;;;;;;;;;;6327108;23;20422;-81
2024/04/01 09:55:06;;;;;;;4.20;3.90;;;;;;;;;;6351599;23;20073;-82
2024/04/01 09:58:02;;;;;;;4.63;4.22;;;;;;;;;;6352433;23;20093;-82
2024/04/01 10:00:36;;;;;;;4.97;4.57;;;;;;;;;;6324721;23;20026;-81
2024/04/01 10:03:37;;;;;;;4.55;4.15;;;;;;;;;;6325315;23;20284;-82
2024/04/01 10:06:24;;;;;;;5.10;4.60;;;;;;;;;;6325443;23;20045;-82
2024/04/01 10:09:17;;;;;;;5.47;5.05;;;;;;;;;;6351739;23;20064;-82
2024/04/01 10:11:56;;;;;;;6.93;6.22;;;;;;;;;;6322878;23;20445;-81
2024/04/01 10:14:48;;;;;;;7.28;6.57;;;;;;;;;;6345576;23;20081;-81
2024/04/01 10:17:27;;;;;;;8.05;6.60;;;;;;;;;;6297640;23;20074;-82
2024/04/01 10:20:24;;;;;;;8.02;7.32;;;;;;;;;;6323376;23;20028;-82
2024/04/01 10:23:20;;;;;;;9.45;8.48;;;;;;;;;;6322769;23;20033;-82
2024/04/01 10:26:20;;;;;;;15.55;13.30;;;;;;;;;;6299775;23;20037;-81
2024/04/01 10:29:15;;;;;;;7.75;7.05;;;;;;;;;;6292290;23;20442;-82
2024/04/01 10:32:08;;;;;;;9.05;8.25;;;;;;;;;;6266465;23;20140;-81
2024/04/01 10:34:49;;;;;;;7.60;7.00;;;;;;;;;;6305647;23;20056;-81
2024/04/01 10:37:31;;;;;;;7.90;7.30;;;;;;;;;;6316109;23;20104;-81
2024/04/01 10:40:04;;;;;;;8.05;7.45;;;;;;;;;;6313422;23;20029;-81
2024/04/01 10:42:47;;;;;;;8.77;8.00;;;;;;;;;;6339824;23;20016;-81
2024/04/01 10:45:36;;;;;;;9.27;8.50;;;;;;;;;;6353611;23;20033;-83
2024/04/01 10:48:16;;;;;;;9.25;8.55;;;;;;;;;;6347999;23;20415;-82
2024/04/01 10:51:00;;;;;;;9.40;8.63;;;;;;;;;;6323429;23;20112;-82
2024/04/01 10:53:54;;;;;;;9.07;8.38;;;;;;;;;;6315755;23;20022;-81
2024/04/01 10:56:45;;;;;;;11.30;10.30;;;;;;;;;;6342860;23;20014;-81
2024/04/01 10:59:29;;;;;;;10.30;9.30;;;;;;;;;;6326137;23;20041;-83
2024/04/01 11:02:13;;;;;;;10.63;9.73;;;;;;;;;;6324595;23;20053;-82
2024/04/01 11:05:04;;;;;;;15.07;13.77;;;;;;;;;;6320920;23;20022;-82
2024/04/01 11:07:45;;;;;;;9.60;8.80;;;;;;;;;;6319430;23;20161;-81
2024/04/01 11:10:21;;;;;;;8.38;7.72;;;;;;;;;;6342363;23;20469;-82
2024/04/01 11:12:56;;;;;;;7.57;6.97;;;;;;;;;;6345851;23;20102;-81
2024/04/01 11:15:29;;;;;;;7.43;6.75;;;;;;;;;;6343936;23;20017;-82
2024/04/01 11:18:06;;;;;;;7.95;7.35;;;;;;;;;;6320349;23;20026;-82
2024/04/01 11:20:41;;;;;;;7.03;6.43;;;;;;;;;;6339951;23;20029;-82
2024/04/01 11:23:26;;;;;;;6.82;6.22;;;;;;;;;;6341483;23;20017;-81
2024/04/01 11:26:07;;;;;;;7.03;6.43;;;;;;;;;;6308883;23;20052;-81
2024/04/01 11:28:47;;;;;;;6.38;5.78;;;;;;;;;;6334682;23;20074;-81
2024/04/01 11:31:20;;;;;;;6.22;5.72;;;;;;;;;;6333363;23;20026;-81
2024/04/01 11:33:55;;;;;;;6.35;5.85;;;;;;;;;;6332430;23;20021;-82
2024/04/01 11:36:29;;;;;;;5.78;5.28;;;;;;;;;;6307951;23;20048;-81
2024/04/01 11:39:03;;;;;;;7.35;6.00;;;;;;;;;;6308000;23;20083;-80
2024/04/01 11:41:40;;;;;;;5.88;5.47;;;;;;;;;;6329792;23;20014;-81
2024/04/01 11:44:12;;;;;;;6.70;6.20;;;;;;;;;;6327828;23;20026;-81
2024/04/01 11:46:45;;;;;;;7.40;6.68;;;;;;;;;;6304537;23;20060;-81
2024/04/01 11:49:17;;;;;;;7.65;6.78;;;;;;;;;;6304081;23;20057;-80
2024/04/01 11:51:51;;;;;;;7.18;6.55;;;;;;;;;;6327395;23;20022;-81
2024/04/01 11:54:26;;;;;;;7.53;6.93;;;;;;;;;;6330033;23;20622;-82
2024/04/01 11:56:59;;;;;;;7.43;6.90;;;;;;;;;;6303079;23;20045;-81
2024/04/01 11:59:36;;;;;;;8.20;7.50;;;;;;;;;;6301571;23;20025;-82
2024/04/01 12:02:11;;;;;;;7.82;7.13;;;;;;;;;;6326578;23;20021;-81
2024/04/01 12:04:43;;;;;;;8.20;7.57;;;;;;;;;;6327705;23;20030;-81
2024/04/01 12:07:15;;;;;;;8.30;7.60;;;;;;;;;;6302825;23;20021;-81
2024/04/01 12:09:47;;;;;;;8.55;7.85;;;;;;;;;;6328845;23;20014;-81
2024/04/01 12:12:20;;;;;;;8.40;7.63;;;;;;;;;;6336465;23;20018;-81
2024/04/01 12:14:52;;;;;;;8.63;7.90;;;;;;;;;;6308388;23;20044;-81
2024/04/01 12:17:25;;;;;;;9.73;8.93;;;;;;;;;;6328566;23;20022;-81
2024/04/01 12:19:58;;;;;;;8.50;7.80;;;;;;;;;;6283498;23;20036;-81
2024/04/01 12:22:29;;;;;;;8.23;7.53;;;;;;;;;;6276823;23;20032;-81
2024/04/01 12:25:01;;;;;;;9.85;8.95;;;;;;;;;;6280587;23;20108;-81
2024/04/01 12:27:37;;;;;;;9.60;8.80;;;;;;;;;;6327421;23;20026;-82
2024/04/01 12:30:10;;;;;;;9.50;8.60;;;;;;;;;;6328099;23;20028;-81
2024/04/01 12:32:43;;;;;;;11.13;10.23;;;;;;;;;;6328674;23;20021;-81
2024/04/01 12:35:19;;;;;;;10.20;9.30;;;;;;;;;;6329728;23;20516;-81
2024/04/01 12:37:50;;;;;;;11.57;10.50;;;;;;;;;;6281073;23;20053;-81
2024/04/01 12:40:24;;;;;;;11.60;10.55;;;;;;;;;;6304682;23;20030;-82
2024/04/01 12:42:56;;;;;;;11.80;10.82;;;;;;;;;;6331901;23;20470;-81
2024/04/01 12:45:28;;;;;;;11.93;10.88;;;;;;;;;;6317661;23;20103;-81
2024/04/01 12:48:10;;;;;;;11.43;10.25;;;;;;;;;;6324549;23;20029;-81
2024/04/01 12:50:43;;;;;;;12.07;11.07;;;;;;;;;;6305823;23;20480;-81
2024/04/01 12:53:20;;;;;;;10.82;9.82;;;;;;;;;;6281974;23;20477;-81
2024/04/01 12:55:55;;;;;;;10.18;9.27;;;;;;;;;;6306495;23;20100;-81
2024/04/01 12:58:32;;;;;;;10.05;9.25;;;;;;;;;;6329192;23;20076;-81
2024/04/01 13:01:10;;;;;;;9.05;8.27;;;;;;;;;;6304202;23;20034;-81
2024/04/01 13:03:47;;;;;;;11.20;10.27;;;;;;;;;;6306538;23;20038;-81
2024/04/01 13:06:28;;;;;;;9.63;8.55;;;;;;;;;;6332575;23;20721;-80
2024/04/01 13:09:03;;;;;;;9.55;8.68;;;;;;;;;;6297320;23;20074;-81
2024/04/01 13:11:52;;;;;;;9.45;8.63;;;;;;;;;;6331509;23;20125;-81
2024/04/01 13:14:33;;;;;;;8.68;7.93;;;;;;;;;;6285203;23;20410;-81
2024/04/01 13:17:07;;;;;;;7.40;6.70;;;;;;;;;;6330883;23;20022;-80
2024/04/01 13:19:45;;;;;;;7.45;6.68;;;;;;;;;;6329656;23;20527;-80
2024/04/01 13:22:24;;;;;;;6.38;5.78;;;;;;;;;;6283541;23;20057;-80
2024/04/01 13:24:58;;;;;;;6.18;5.68;;;;;;;;;;6303413;23;20053;-81
2024/04/01 13:27:35;;;;;;;6.32;5.75;;;;;;;;;;6333395;23;20085;-80
2024/04/01 13:30:13;;;;;;;6.00;5.45;;;;;;;;;;6326123;23;20044;-81
2024/04/01 13:32:49;;;;;;;6.35;5.85;;;;;;;;;;6330742;23;20209;-83
2024/04/01 13:35:28;;;;;;;6.05;5.45;;;;;;;;;;6307307;23;20029;-81
2024/04/01 13:38:04;;;;;;;6.32;5.80;;;;;;;;;;6330425;23;20032;-81
2024/04/01 13:40:42;;;;;;;7.07;5.78;;;;;;;;;;6306181;23;20052;-81
2024/04/01 13:43:22;;;;;;;7.15;6.03;;;;;;;;;;6283366;23;20859;-80
2024/04/01 13:46:02;;;;;;;6.97;6.30;;;;;;;;;;6329647;23;20109;-81
2024/04/01 13:48:41;;;;;;;7.38;6.70;;;;;;;;;;6329332;23;20097;-82
2024/04/01 13:51:16;;;;;;;6.82;6.25;;;;;;;;;;6304661;23;20473;-80
2024/04/01 13:53:53;;;;;;;7.78;7.07;;;;;;;;;;6329147;23;20022;-81
2024/04/01 13:56:32;;;;;;;7.25;6.55;;;;;;;;;;6329753;23;20018;-80
2024/04/01 13:59:10;;;;;;;7.63;6.88;;;;;;;;;;6329491;23;20018;-80
2024/04/01 14:01:49;;;;;;;7.88;6.70;;;;;;;;;;6304499;23;20029;-80
2024/04/01 14:04:29;;;;;;;7.70;6.95;;;;;;;;;;6306100;23;20018;-81
2024/04/01 14:07:06;;;;;;;7.57;6.60;;;;;;;;;;6327314;23;20021;-81
2024/04/01 14:09:42;;;;;;;9.07;6.65;;;;;;;;;;6329601;23;20029;-80
2024/04/01 14:12:19;;;;;;;6.60;5.90;;;;;;;;;;6328805;23;20026;-81
2024/04/01 14:14:57;;;;;;;6.47;5.82;;;;;;;;;;6304596;23;20021;-80
2024/04/01 14:17:35;;;;;;;6.72;6.13;;;;;;;;;;6328009;23;20014;-81
2024/04/01 14:20:08;;;;;;;6.07;5.47;;;;;;;;;;6304602;23;20044;-80
2024/04/01 14:22:40;;;;;;;6.10;5.50;;;;;;;;;;6277700;23;20081;-81
2024/04/01 14:25:12;;;;;;;5.47;4.97;;;;;;;;;;6328401;23;20045;-81
2024/04/01 14:27:43;;;;;;;8.40;4.93;;;;;;;;;;6329256;23;20065;-83
2024/04/01 14:30:15;;;;;;;5.45;4.22;;;;;;;;;;6329590;23;20037;-80
2024/04/01 14:32:50;;;;;;;4.43;3.67;;;;;;;;;;6325658;23;20338;-81
2024/04/01 14:35:21;;;;;;;3.80;3.00;;;;;;;;;;6328219;23;20357;-80
2024/04/01 14:37:56;;;;;;;5.82;3.65;;;;;;;;;;6281414;23;20108;-80
2024/04/01 14:40:28;;;;;;;4.13;2.75;;;;;;;;;;6302830;23;20065;-81
2024/04/01 14:43:01;;;;;;;4.65;3.05;;;;;;;;;;6329145;23;20046;-81
2024/04/01 14:45:33;;;;;;;3.17;2.47;;;;;;;;;;6328450;23;20028;-81
2024/04/01 14:48:06;;;;;;;3.47;2.03;;;;;;;;;;6327387;23;20538;-81
2024/04/01 14:50:38;;;;;;;3.92;2.10;;;;;;;;;;6326953;23;20473;-80
2024/04/01 14:53:10;;;;;;;2.90;2.08;;;;;;;;;;6302414;23;20034;-81
2024/04/01 14:55:44;;;;;;;4.47;2.28;;;;;;;;;;6327801;23;20018;-81
2024/04/01 14:58:15;;;;;;;2.55;1.75;;;;;;;;;;6302111;23;20022;-80
2024/04/01 15:00:47;;;;;;;5.05;2.45;;;;;;;;;;6302179;23;20068;-81
2024/04/01 15:03:21;;;;;;;4.07;1.90;;;;;;;;;;6281874;23;20029;-81
2024/04/01 15:05:54;;;;;;;3.17;1.80;;;;;;;;;;6330272;23;20354;-81
2024/04/01 15:08:26;;;;;;;4.07;2.08;;;;;;;;;;6307642;23;20053;-81
2024/04/01 15:10:59;;;;;;;3.03;1.98;;;;;;;;;;6303389;23;20021;-80
2024/04/01 15:13:40;;;;;;;9.70;5.28;;;;;;;;;;6328812;23;20385;-81
2024/04/01 15:16:15;;;;;;;3.80;2.70;;;;;;;;;;6304999;23;20029;-82
2024/04/01 15:18:50;;;;;;;6.82;3.47;;;;;;;;;;6305097;23;20018;-82
2024/04/01 15:21:22;;;;;;;4.60;2.42;;;;;;;;;;6329714;23;20018;-81
2024/04/01 15:23:54;;;;;;;4.85;3.05;;;;;;;;;;6305513;23;20109;-81